sensor_id;sensor_type;location;lat;lon;timestamp;temperature;humidity
29363;DHT22;16349;53.672;10.014;2023-02-13T00:00:08;7.20;99.90
29363;DHT22;16349;53.672;10.014;2023-02-13T00:02:36;7.20;99.90
29363;DHT22;16349;53.672;10.014;2023-02-13T00:05:02;7.20;99.90
29363;DHT22;16349;53.672;10.014;2023-02-13T00:07:29;7.20;99.90
29363;DHT22;16349;53.672;10.014;2023-02-13T00:09:56;7.20;99.90
29363;DHT22;16349;53.672;10.014;2023-02-13T00:12:24;7.20;99.90
29363;DHT22;16349;53.672;10.014;2023-02-13T00:14:51;7.20;99.90
29363;DHT22;16349;53.672;10.014;2023-02-13T00:17:18;7.20;99.90
29363;DHT22;16349;53.672;10.014;2023-02-13T00:19:45;7.20;99.90
29363;DHT22;16349;53.672;10.014;2023-02-13T00:22:13;7.20;99.90
29363;DHT22;16349;53.672;10.014;2023-02-13T00:24:41;7.30;99.90
29363;DHT22;16349;53.672;10.014;2023-02-13T00:27:08;7.20;99.90
29363;DHT22;16349;53.672;10.014;2023-02-13T00:29:36;7.20;99.90
29363;DHT22;16349;53.672;10.014;2023-02-13T00:32:04;7.20;99.90
29363;DHT22;16349;53.672;10.014;2023-02-13T00:34:32;7.20;99.90
29363;DHT22;16349;53.672;10.014;2023-02-13T00:37:01;7.20;99.90
29363;DHT22;16349;53.672;10.014;2023-02-13T00:39:29;7.10;99.90
29363;DHT22;16349;53.672;10.014;2023-02-13T00:41:56;7.20;99.90
29363;DHT22;16349;53.672;10.014;2023-02-13T00:44:22;7.20;99.90
29363;DHT22;16349;53.672;10.014;2023-02-13T00:46:50;7.20;99.90
29363;DHT22;16349;53.672;10.014;2023-02-13T00:49:18;7.20;99.90
29363;DHT22;16349;53.672;10.014;2023-02-13T00:51:44;7.10;99.90
29363;DHT22;16349;53.672;10.014;2023-02-13T00:54:12;7.10;99.90
29363;DHT22;16349;53.672;10.014;2023-02-13T00:57:01;7.20;99.90
29363;DHT22;16349;53.672;10.014;2023-02-13T00:59:28;7.20;99.90
29363;DHT22;16349;53.672;10.014;2023-02-13T01:01:56;7.10;99.90
29363;DHT22;16349;53.672;10.014;2023-02-13T01:04:23;7.10;99.90
29363;DHT22;16349;53.672;10.014;2023-02-13T01:06:50;7.20;99.90
29363;DHT22;16349;53.672;10.014;2023-02-13T01:09:16;7.10;99.90
29363;DHT22;16349;53.672;10.014;2023-02-13T01:11:44;7.10;99.90
29363;DHT22;16349;53.672;10.014;2023-02-13T01:14:11;7.10;99.90
29363;DHT22;16349;53.672;10.014;2023-02-13T01:16:38;7.10;99.90
29363;DHT22;16349;53.672;10.014;2023-02-13T01:19:06;7.10;99.90
29363;DHT22;16349;53.672;10.014;2023-02-13T01:21:34;7.10;99.90
29363;DHT22;16349;53.672;10.014;2023-02-13T01:24:03;7.10;99.90
29363;DHT22;16349;53.672;10.014;2023-02-13T01:26:30;7.10;99.90
29363;DHT22;16349;53.672;10.014;2023-02-13T01:28:57;7.10;99.90
29363;DHT22;16349;53.672;10.014;2023-02-13T01:31:24;7.10;99.90
29363;DHT22;16349;53.672;10.014;2023-02-13T01:33:54;7.10;99.90
29363;DHT22;16349;53.672;10.014;2023-02-13T01:36:23;7.10;99.90
29363;DHT22;16349;53.672;10.014;2023-02-13T01:38:52;7.10;99.90
29363;DHT22;16349;53.672;10.014;2023-02-13T01:41:20;7.10;99.90
29363;DHT22;16349;53.672;10.014;2023-02-13T01:43:49;7.10;99.90
29363;DHT22;16349;53.672;10.014;2023-02-13T01:46:20;7.10;99.90
29363;DHT22;16349;53.672;10.014;2023-02-13T01:48:48;7.00;99.90
29363;DHT22;16349;53.672;10.014;2023-02-13T01:51:19;7.00;99.90
29363;DHT22;16349;53.672;10.014;2023-02-13T01:53:53;7.00;99.90
29363;DHT22;16349;53.672;10.014;2023-02-13T01:56:25;7.00;99.90
29363;DHT22;16349;53.672;10.014;2023-02-13T01:58:56;7.00;99.90
29363;DHT22;16349;53.672;10.014;2023-02-13T02:01:26;7.00;99.90
29363;DHT22;16349;53.672;10.014;2023-02-13T02:03:56;7.00;99.90
29363;DHT22;16349;53.672;10.014;2023-02-13T02:06:28;7.00;99.90
29363;DHT22;16349;53.672;10.014;2023-02-13T02:09:02;7.00;99.90
29363;DHT22;16349;53.672;10.014;2023-02-13T02:11:33;7.00;99.90
29363;DHT22;16349;53.672;10.014;2023-02-13T02:14:03;7.00;99.90
29363;DHT22;16349;53.672;10.014;2023-02-13T02:16:32;7.00;99.90
29363;DHT22;16349;53.672;10.014;2023-02-13T02:19:04;7.00;99.90
29363;DHT22;16349;53.672;10.014;2023-02-13T02:22:16;7.00;99.90
29363;DHT22;16349;53.672;10.014;2023-02-13T02:25:27;7.00;99.90
29363;DHT22;16349;53.672;10.014;2023-02-13T02:28:21;7.00;99.90
29363;DHT22;16349;53.672;10.014;2023-02-13T02:31:38;7.00;99.90
29363;DHT22;16349;53.672;10.014;2023-02-13T02:34:12;7.00;99.90
29363;DHT22;16349;53.672;10.014;2023-02-13T02:36:55;6.90;99.90
29363;DHT22;16349;53.672;10.014;2023-02-13T02:39:31;7.00;99.90
29363;DHT22;16349;53.672;10.014;2023-02-13T02:42:07;6.90;99.90
29363;DHT22;16349;53.672;10.014;2023-02-13T02:44:41;6.90;99.90
29363;DHT22;16349;53.672;10.014;2023-02-13T02:47:19;6.90;99.90
29363;DHT22;16349;53.672;10.014;2023-02-13T02:50:28;6.90;99.90
29363;DHT22;16349;53.672;10.014;2023-02-13T02:53:06;6.90;99.90
29363;DHT22;16349;53.672;10.014;2023-02-13T02:55:42;6.90;99.90
29363;DHT22;16349;53.672;10.014;2023-02-13T02:58:34;6.90;99.90
29363;DHT22;16349;53.672;10.014;2023-02-13T03:01:22;6.90;99.90
29363;DHT22;16349;53.672;10.014;2023-02-13T03:04:15;6.80;99.90
29363;DHT22;16349;53.672;10.014;2023-02-13T03:07:05;6.80;99.90
29363;DHT22;16349;53.672;10.014;2023-02-13T03:09:36;6.80;99.90
29363;DHT22;16349;53.672;10.014;2023-02-13T03:12:26;6.70;99.90
29363;DHT22;16349;53.672;10.014;2023-02-13T03:15:12;6.70;99.90
29363;DHT22;16349;53.672;10.014;2023-02-13T03:17:39;6.80;99.90
29363;DHT22;16349;53.672;10.014;2023-02-13T03:20:31;6.80;99.90
29363;DHT22;16349;53.672;10.014;2023-02-13T03:23:21;6.80;99.90
29363;DHT22;16349;53.672;10.014;2023-02-13T03:26:14;6.80;99.90
29363;DHT22;16349;53.672;10.014;2023-02-13T03:28:54;6.80;99.90
29363;DHT22;16349;53.672;10.014;2023-02-13T03:31:47;6.80;99.90
29363;DHT22;16349;53.672;10.014;2023-02-13T03:34:21;6.80;99.90
29363;DHT22;16349;53.672;10.014;2023-02-13T03:36:57;6.80;99.90
29363;DHT22;16349;53.672;10.014;2023-02-13T03:39:48;6.80;99.90
29363;DHT22;16349;53.672;10.014;2023-02-13T03:42:25;6.80;99.90
29363;DHT22;16349;53.672;10.014;2023-02-13T03:44:55;6.70;99.90
29363;DHT22;16349;53.672;10.014;2023-02-13T03:47:38;6.80;99.90
29363;DHT22;16349;53.672;10.014;2023-02-13T03:50:08;6.80;99.90
29363;DHT22;16349;53.672;10.014;2023-02-13T03:52:42;6.80;99.90
29363;DHT22;16349;53.672;10.014;2023-02-13T03:55:12;6.80;99.90
29363;DHT22;16349;53.672;10.014;2023-02-13T03:58:01;6.80;99.90
29363;DHT22;16349;53.672;10.014;2023-02-13T04:00:49;6.70;99.90
29363;DHT22;16349;53.672;10.014;2023-02-13T04:03:21;6.70;99.90
29363;DHT22;16349;53.672;10.014;2023-02-13T04:05:53;6.70;99.90
29363;DHT22;16349;53.672;10.014;2023-02-13T04:08:23;6.70;99.90
29363;DHT22;16349;53.672;10.014;2023-02-13T04:10:54;6.70;99.90
29363;DHT22;16349;53.672;10.014;2023-02-13T04:13:26;6.70;99.90
29363;DHT22;16349;53.672;10.014;2023-02-13T04:15:57;6.70;99.90
29363;DHT22;16349;53.672;10.014;2023-02-13T04:18:27;6.70;99.90
29363;DHT22;16349;53.672;10.014;2023-02-13T04:20:55;6.70;99.90
29363;DHT22;16349;53.672;10.014;2023-02-13T04:23:23;6.70;99.90
29363;DHT22;16349;53.672;10.014;2023-02-13T04:25:51;6.70;99.90
29363;DHT22;16349;53.672;10.014;2023-02-13T04:28:20;6.70;99.90
29363;DHT22;16349;53.672;10.014;2023-02-13T04:30:46;6.70;99.90
29363;DHT22;16349;53.672;10.014;2023-02-13T04:33:36;6.70;99.90
29363;DHT22;16349;53.672;10.014;2023-02-13T04:36:04;6.70;99.90
29363;DHT22;16349;53.672;10.014;2023-02-13T04:38:32;6.70;99.90
29363;DHT22;16349;53.672;10.014;2023-02-13T04:40:59;6.70;99.90
29363;DHT22;16349;53.672;10.014;2023-02-13T04:43:26;6.70;99.90
29363;DHT22;16349;53.672;10.014;2023-02-13T04:45:53;6.70;99.90
29363;DHT22;16349;53.672;10.014;2023-02-13T04:48:19;6.70;99.90
29363;DHT22;16349;53.672;10.014;2023-02-13T04:50:46;6.70;99.90
29363;DHT22;16349;53.672;10.014;2023-02-13T04:53:13;6.70;99.90
29363;DHT22;16349;53.672;10.014;2023-02-13T04:55:41;6.70;99.90
29363;DHT22;16349;53.672;10.014;2023-02-13T04:58:08;6.60;99.90
29363;DHT22;16349;53.672;10.014;2023-02-13T05:00:35;6.70;99.90
29363;DHT22;16349;53.672;10.014;2023-02-13T05:03:04;6.60;99.90
29363;DHT22;16349;53.672;10.014;2023-02-13T05:05:30;6.60;99.90
29363;DHT22;16349;53.672;10.014;2023-02-13T05:07:57;6.60;99.90
29363;DHT22;16349;53.672;10.014;2023-02-13T05:10:24;6.60;99.90
29363;DHT22;16349;53.672;10.014;2023-02-13T05:12:52;6.60;99.90
29363;DHT22;16349;53.672;10.014;2023-02-13T05:15:40;6.60;99.90
29363;DHT22;16349;53.672;10.014;2023-02-13T05:18:08;6.60;99.90
29363;DHT22;16349;53.672;10.014;2023-02-13T05:20:34;6.60;99.90
29363;DHT22;16349;53.672;10.014;2023-02-13T05:23:01;6.60;99.90
29363;DHT22;16349;53.672;10.014;2023-02-13T05:25:46;6.60;99.90
29363;DHT22;16349;53.672;10.014;2023-02-13T05:28:14;6.60;99.90
29363;DHT22;16349;53.672;10.014;2023-02-13T05:30:59;6.60;99.90
29363;DHT22;16349;53.672;10.014;2023-02-13T05:33:26;6.60;99.90
29363;DHT22;16349;53.672;10.014;2023-02-13T05:35:53;6.60;99.90
29363;DHT22;16349;53.672;10.014;2023-02-13T05:38:19;6.60;99.90
29363;DHT22;16349;53.672;10.014;2023-02-13T05:40:46;6.50;99.90
29363;DHT22;16349;53.672;10.014;2023-02-13T05:43:14;6.50;99.90
29363;DHT22;16349;53.672;10.014;2023-02-13T05:45:41;6.50;99.90
29363;DHT22;16349;53.672;10.014;2023-02-13T05:48:08;6.50;99.90
29363;DHT22;16349;53.672;10.014;2023-02-13T05:50:35;6.50;99.90
29363;DHT22;16349;53.672;10.014;2023-02-13T05:53:01;6.50;99.90
29363;DHT22;16349;53.672;10.014;2023-02-13T05:55:28;6.50;99.90
29363;DHT22;16349;53.672;10.014;2023-02-13T05:57:55;6.50;99.90
29363;DHT22;16349;53.672;10.014;2023-02-13T06:00:24;6.40;99.90
29363;DHT22;16349;53.672;10.014;2023-02-13T06:02:51;6.50;99.90
29363;DHT22;16349;53.672;10.014;2023-02-13T06:05:18;6.50;99.90
29363;DHT22;16349;53.672;10.014;2023-02-13T06:07:45;6.50;99.90
29363;DHT22;16349;53.672;10.014;2023-02-13T06:10:11;6.50;99.90
29363;DHT22;16349;53.672;10.014;2023-02-13T06:12:38;6.50;99.90
29363;DHT22;16349;53.672;10.014;2023-02-13T06:15:06;6.50;99.90
29363;DHT22;16349;53.672;10.014;2023-02-13T06:17:34;6.50;99.90
29363;DHT22;16349;53.672;10.014;2023-02-13T06:20:01;6.50;99.90
29363;DHT22;16349;53.672;10.014;2023-02-13T06:22:27;6.50;99.90
29363;DHT22;16349;53.672;10.014;2023-02-13T06:24:54;6.50;99.90
29363;DHT22;16349;53.672;10.014;2023-02-13T06:27:22;6.50;99.90
29363;DHT22;16349;53.672;10.014;2023-02-13T06:29:48;6.50;99.90
29363;DHT22;16349;53.672;10.014;2023-02-13T06:32:16;6.50;99.90
29363;DHT22;16349;53.672;10.014;2023-02-13T06:34:44;6.50;99.90
29363;DHT22;16349;53.672;10.014;2023-02-13T06:37:11;6.50;99.90
29363;DHT22;16349;53.672;10.014;2023-02-13T06:39:38;6.50;99.90
29363;DHT22;16349;53.672;10.014;2023-02-13T06:42:05;6.50;99.90
29363;DHT22;16349;53.672;10.014;2023-02-13T06:44:32;6.50;99.90
29363;DHT22;16349;53.672;10.014;2023-02-13T06:46:58;6.50;99.90
29363;DHT22;16349;53.672;10.014;2023-02-13T06:49:26;6.50;99.90
29363;DHT22;16349;53.672;10.014;2023-02-13T06:51:54;6.50;99.90
29363;DHT22;16349;53.672;10.014;2023-02-13T06:54:21;6.50;99.90
29363;DHT22;16349;53.672;10.014;2023-02-13T06:56:47;6.50;99.90
29363;DHT22;16349;53.672;10.014;2023-02-13T06:59:14;6.50;99.90
29363;DHT22;16349;53.672;10.014;2023-02-13T07:01:41;6.50;99.90
29363;DHT22;16349;53.672;10.014;2023-02-13T07:04:08;6.50;99.90
29363;DHT22;16349;53.672;10.014;2023-02-13T07:06:35;6.50;99.90
29363;DHT22;16349;53.672;10.014;2023-02-13T07:09:04;6.50;99.90
29363;DHT22;16349;53.672;10.014;2023-02-13T07:11:30;6.50;99.90
29363;DHT22;16349;53.672;10.014;2023-02-13T07:13:57;6.50;99.90
29363;DHT22;16349;53.672;10.014;2023-02-13T07:16:24;6.50;99.90
29363;DHT22;16349;53.672;10.014;2023-02-13T07:18:51;6.50;99.90
29363;DHT22;16349;53.672;10.014;2023-02-13T07:21:18;6.50;99.90
29363;DHT22;16349;53.672;10.014;2023-02-13T07:23:45;6.50;99.90
29363;DHT22;16349;53.672;10.014;2023-02-13T07:26:13;6.50;99.90
29363;DHT22;16349;53.672;10.014;2023-02-13T07:28:40;6.50;99.90
29363;DHT22;16349;53.672;10.014;2023-02-13T07:31:08;6.50;99.90
29363;DHT22;16349;53.672;10.014;2023-02-13T07:33:36;6.50;99.90
29363;DHT22;16349;53.672;10.014;2023-02-13T07:36:03;6.50;99.90
29363;DHT22;16349;53.672;10.014;2023-02-13T07:38:30;6.50;99.90
29363;DHT22;16349;53.672;10.014;2023-02-13T07:40:57;6.50;99.90
29363;DHT22;16349;53.672;10.014;2023-02-13T07:43:26;6.50;99.90
29363;DHT22;16349;53.672;10.014;2023-02-13T07:46:15;6.50;99.90
29363;DHT22;16349;53.672;10.014;2023-02-13T07:48:43;6.50;99.90
29363;DHT22;16349;53.672;10.014;2023-02-13T07:51:10;6.60;99.90
29363;DHT22;16349;53.672;10.014;2023-02-13T07:53:36;6.60;99.90
29363;DHT22;16349;53.672;10.014;2023-02-13T07:56:06;6.60;99.90
29363;DHT22;16349;53.672;10.014;2023-02-13T07:58:36;6.60;99.90
29363;DHT22;16349;53.672;10.014;2023-02-13T08:01:06;6.60;99.90
29363;DHT22;16349;53.672;10.014;2023-02-13T08:03:32;6.60;99.90
29363;DHT22;16349;53.672;10.014;2023-02-13T08:06:00;6.60;99.90
29363;DHT22;16349;53.672;10.014;2023-02-13T08:08:28;6.60;99.90
29363;DHT22;16349;53.672;10.014;2023-02-13T08:11:02;6.60;99.90
29363;DHT22;16349;53.672;10.014;2023-02-13T08:13:49;6.60;99.90
29363;DHT22;16349;53.672;10.014;2023-02-13T08:16:16;6.60;99.90
29363;DHT22;16349;53.672;10.014;2023-02-13T08:18:43;6.60;99.90
29363;DHT22;16349;53.672;10.014;2023-02-13T08:21:10;6.60;99.90
29363;DHT22;16349;53.672;10.014;2023-02-13T08:23:36;6.60;99.90
29363;DHT22;16349;53.672;10.014;2023-02-13T08:26:27;6.60;99.90
29363;DHT22;16349;53.672;10.014;2023-02-13T08:28:57;6.70;99.90
29363;DHT22;16349;53.672;10.014;2023-02-13T08:31:24;6.70;99.90
29363;DHT22;16349;53.672;10.014;2023-02-13T08:33:50;6.60;99.90
29363;DHT22;16349;53.672;10.014;2023-02-13T08:36:18;6.60;99.90
29363;DHT22;16349;53.672;10.014;2023-02-13T08:38:45;6.70;99.90
29363;DHT22;16349;53.672;10.014;2023-02-13T08:41:12;6.70;99.90
29363;DHT22;16349;53.672;10.014;2023-02-13T08:43:40;6.70;99.90
29363;DHT22;16349;53.672;10.014;2023-02-13T08:46:08;6.70;99.90
29363;DHT22;16349;53.672;10.014;2023-02-13T08:48:37;6.70;99.90
29363;DHT22;16349;53.672;10.014;2023-02-13T08:51:05;6.80;99.90
29363;DHT22;16349;53.672;10.014;2023-02-13T08:53:32;6.80;99.90
29363;DHT22;16349;53.672;10.014;2023-02-13T08:55:59;6.80;99.90
29363;DHT22;16349;53.672;10.014;2023-02-13T08:58:25;6.80;99.90
29363;DHT22;16349;53.672;10.014;2023-02-13T09:00:52;6.80;99.90
29363;DHT22;16349;53.672;10.014;2023-02-13T09:03:21;6.80;99.90
29363;DHT22;16349;53.672;10.014;2023-02-13T09:05:48;6.80;99.90
29363;DHT22;16349;53.672;10.014;2023-02-13T09:08:15;6.80;99.90
29363;DHT22;16349;53.672;10.014;2023-02-13T09:10:42;6.90;99.90
29363;DHT22;16349;53.672;10.014;2023-02-13T09:13:10;6.90;99.90
29363;DHT22;16349;53.672;10.014;2023-02-13T09:15:37;6.90;99.90
29363;DHT22;16349;53.672;10.014;2023-02-13T09:18:05;6.90;99.90
29363;DHT22;16349;53.672;10.014;2023-02-13T09:20:33;6.90;99.90
29363;DHT22;16349;53.672;10.014;2023-02-13T09:22:59;6.90;99.90
29363;DHT22;16349;53.672;10.014;2023-02-13T09:25:26;6.90;99.90
29363;DHT22;16349;53.672;10.014;2023-02-13T09:27:53;6.90;99.90
29363;DHT22;16349;53.672;10.014;2023-02-13T09:30:20;7.00;99.90
29363;DHT22;16349;53.672;10.014;2023-02-13T09:32:50;7.00;99.90
29363;DHT22;16349;53.672;10.014;2023-02-13T09:35:17;6.90;99.90
29363;DHT22;16349;53.672;10.014;2023-02-13T09:37:46;6.90;99.90
29363;DHT22;16349;53.672;10.014;2023-02-13T09:40:17;6.90;99.90
29363;DHT22;16349;53.672;10.014;2023-02-13T09:42:47;7.00;99.90
29363;DHT22;16349;53.672;10.014;2023-02-13T09:45:16;7.00;99.90
29363;DHT22;16349;53.672;10.014;2023-02-13T09:47:47;7.00;99.90
29363;DHT22;16349;53.672;10.014;2023-02-13T09:50:17;7.00;99.90
29363;DHT22;16349;53.672;10.014;2023-02-13T09:52:50;7.00;99.90
29363;DHT22;16349;53.672;10.014;2023-02-13T09:55:18;6.90;99.90
29363;DHT22;16349;53.672;10.014;2023-02-13T09:57:52;7.00;99.90
29363;DHT22;16349;53.672;10.014;2023-02-13T10:00:23;7.00;99.90
29363;DHT22;16349;53.672;10.014;2023-02-13T10:03:19;7.10;99.90
29363;DHT22;16349;53.672;10.014;2023-02-13T10:06:09;7.10;99.90
29363;DHT22;16349;53.672;10.014;2023-02-13T10:09:00;7.10;99.90
29363;DHT22;16349;53.672;10.014;2023-02-13T10:11:51;7.10;99.90
29363;DHT22;16349;53.672;10.014;2023-02-13T10:14:44;7.20;99.90
29363;DHT22;16349;53.672;10.014;2023-02-13T10:17:16;7.20;99.90
29363;DHT22;16349;53.672;10.014;2023-02-13T10:19:49;7.20;99.90
29363;DHT22;16349;53.672;10.014;2023-02-13T10:22:19;7.20;99.90
29363;DHT22;16349;53.672;10.014;2023-02-13T10:24:51;7.20;99.90
29363;DHT22;16349;53.672;10.014;2023-02-13T10:27:22;7.20;99.90
29363;DHT22;16349;53.672;10.014;2023-02-13T10:29:54;7.20;99.90
29363;DHT22;16349;53.672;10.014;2023-02-13T10:32:43;7.20;99.90
29363;DHT22;16349;53.672;10.014;2023-02-13T10:35:20;7.20;99.90
29363;DHT22;16349;53.672;10.014;2023-02-13T10:37:50;7.30;99.90
29363;DHT22;16349;53.672;10.014;2023-02-13T10:40:19;7.20;99.90
29363;DHT22;16349;53.672;10.014;2023-02-13T10:42:53;7.30;99.90
29363;DHT22;16349;53.672;10.014;2023-02-13T10:45:48;7.30;99.90
29363;DHT22;16349;53.672;10.014;2023-02-13T10:48:31;7.30;99.90
29363;DHT22;16349;53.672;10.014;2023-02-13T10:51:04;7.30;99.90
29363;DHT22;16349;53.672;10.014;2023-02-13T10:53:43;7.30;99.90
29363;DHT22;16349;53.672;10.014;2023-02-13T10:56:24;7.30;99.90
29363;DHT22;16349;53.672;10.014;2023-02-13T10:59:06;7.30;99.90
29363;DHT22;16349;53.672;10.014;2023-02-13T11:02:01;7.30;99.90
29363;DHT22;16349;53.672;10.014;2023-02-13T11:04:29;7.40;99.90
29363;DHT22;16349;53.672;10.014;2023-02-13T11:06:58;7.40;99.90
29363;DHT22;16349;53.672;10.014;2023-02-13T11:09:27;7.40;99.90
29363;DHT22;16349;53.672;10.014;2023-02-13T11:11:57;7.40;99.90
29363;DHT22;16349;53.672;10.014;2023-02-13T11:14:25;7.40;99.90
29363;DHT22;16349;53.672;10.014;2023-02-13T11:16:54;7.50;99.90
29363;DHT22;16349;53.672;10.014;2023-02-13T11:19:30;7.50;99.90
29363;DHT22;16349;53.672;10.014;2023-02-13T11:22:00;7.50;99.90
29363;DHT22;16349;53.672;10.014;2023-02-13T11:24:29;7.50;99.90
29363;DHT22;16349;53.672;10.014;2023-02-13T11:27:00;7.40;99.90
29363;DHT22;16349;53.672;10.014;2023-02-13T11:29:30;7.50;99.90
29363;DHT22;16349;53.672;10.014;2023-02-13T11:32:18;7.50;99.90
29363;DHT22;16349;53.672;10.014;2023-02-13T11:34:46;7.50;99.90
29363;DHT22;16349;53.672;10.014;2023-02-13T11:37:19;7.50;99.90
29363;DHT22;16349;53.672;10.014;2023-02-13T11:39:47;7.60;99.90
29363;DHT22;16349;53.672;10.014;2023-02-13T11:42:18;7.60;99.90
29363;DHT22;16349;53.672;10.014;2023-02-13T11:44:49;7.60;99.90
29363;DHT22;16349;53.672;10.014;2023-02-13T11:47:30;7.70;99.90
29363;DHT22;16349;53.672;10.014;2023-02-13T11:49:58;7.70;99.90
29363;DHT22;16349;53.672;10.014;2023-02-13T11:52:27;7.70;99.90
29363;DHT22;16349;53.672;10.014;2023-02-13T11:54:58;7.70;99.90
29363;DHT22;16349;53.672;10.014;2023-02-13T11:57:30;7.70;99.90
29363;DHT22;16349;53.672;10.014;2023-02-13T11:59:58;7.70;99.90
29363;DHT22;16349;53.672;10.014;2023-02-13T12:02:27;7.70;99.90
29363;DHT22;16349;53.672;10.014;2023-02-13T12:05:13;7.70;99.90
29363;DHT22;16349;53.672;10.014;2023-02-13T12:07:41;7.80;99.90
29363;DHT22;16349;53.672;10.014;2023-02-13T12:10:17;7.70;99.90
29363;DHT22;16349;53.672;10.014;2023-02-13T12:13:14;7.70;99.90
29363;DHT22;16349;53.672;10.014;2023-02-13T12:15:46;7.80;99.90
29363;DHT22;16349;53.672;10.014;2023-02-13T12:18:20;7.80;99.90
29363;DHT22;16349;53.672;10.014;2023-02-13T12:20:56;7.90;99.90
29363;DHT22;16349;53.672;10.014;2023-02-13T12:23:32;7.80;99.90
29363;DHT22;16349;53.672;10.014;2023-02-13T12:26:11;7.80;99.90
29363;DHT22;16349;53.672;10.014;2023-02-13T12:28:56;7.80;99.90
29363;DHT22;16349;53.672;10.014;2023-02-13T12:31:39;7.80;99.90
29363;DHT22;16349;53.672;10.014;2023-02-13T12:37:40;7.80;99.90
29363;DHT22;16349;53.672;10.014;2023-02-13T12:40:25;7.80;99.90
29363;DHT22;16349;53.672;10.014;2023-02-13T12:43:22;7.80;99.90
29363;DHT22;16349;53.672;10.014;2023-02-13T12:46:00;7.80;99.90
29363;DHT22;16349;53.672;10.014;2023-02-13T12:48:57;7.80;99.90
29363;DHT22;16349;53.672;10.014;2023-02-13T12:51:33;7.80;99.90
29363;DHT22;16349;53.672;10.014;2023-02-13T12:54:20;7.80;99.90
29363;DHT22;16349;53.672;10.014;2023-02-13T12:57:00;7.80;99.90
29363;DHT22;16349;53.672;10.014;2023-02-13T12:59:39;7.80;99.90
29363;DHT22;16349;53.672;10.014;2023-02-13T13:02:35;7.80;99.90
29363;DHT22;16349;53.672;10.014;2023-02-13T13:05:18;7.80;99.90
29363;DHT22;16349;53.672;10.014;2023-02-13T13:08:16;7.90;99.90
29363;DHT22;16349;53.672;10.014;2023-02-13T13:10:56;7.90;99.90
29363;DHT22;16349;53.672;10.014;2023-02-13T13:13:36;7.80;99.90
29363;DHT22;16349;53.672;10.014;2023-02-13T13:16:13;7.80;99.90
29363;DHT22;16349;53.672;10.014;2023-02-13T13:18:55;7.70;99.90
29363;DHT22;16349;53.672;10.014;2023-02-13T13:21:30;7.80;99.90
29363;DHT22;16349;53.672;10.014;2023-02-13T13:24:04;7.80;99.90
29363;DHT22;16349;53.672;10.014;2023-02-13T13:26:35;7.80;99.90
29363;DHT22;16349;53.672;10.014;2023-02-13T13:29:05;7.70;99.90
29363;DHT22;16349;53.672;10.014;2023-02-13T13:31:36;7.80;99.90
29363;DHT22;16349;53.672;10.014;2023-02-13T13:34:12;7.80;99.90
29363;DHT22;16349;53.672;10.014;2023-02-13T13:36:43;7.70;99.90
29363;DHT22;16349;53.672;10.014;2023-02-13T13:39:35;7.70;99.90
29363;DHT22;16349;53.672;10.014;2023-02-13T13:42:07;7.60;99.90
29363;DHT22;16349;53.672;10.014;2023-02-13T13:45:04;7.60;99.90
29363;DHT22;16349;53.672;10.014;2023-02-13T13:48:09;7.60;99.90
29363;DHT22;16349;53.672;10.014;2023-02-13T13:51:05;7.60;99.90
29363;DHT22;16349;53.672;10.014;2023-02-13T13:53:33;7.60;99.90
29363;DHT22;16349;53.672;10.014;2023-02-13T13:56:03;7.60;99.90
29363;DHT22;16349;53.672;10.014;2023-02-13T13:58:54;7.60;99.90
29363;DHT22;16349;53.672;10.014;2023-02-13T14:01:26;7.50;99.90
29363;DHT22;16349;53.672;10.014;2023-02-13T14:03:57;7.50;99.90
29363;DHT22;16349;53.672;10.014;2023-02-13T14:06:27;7.50;99.90
29363;DHT22;16349;53.672;10.014;2023-02-13T14:09:37;7.50;99.90
29363;DHT22;16349;53.672;10.014;2023-02-13T14:12:35;7.50;99.90
29363;DHT22;16349;53.672;10.014;2023-02-13T14:15:03;7.50;99.90
29363;DHT22;16349;53.672;10.014;2023-02-13T14:17:52;7.50;99.90
29363;DHT22;16349;53.672;10.014;2023-02-13T14:20:35;7.50;99.90
29363;DHT22;16349;53.672;10.014;2023-02-13T14:23:12;7.50;99.90
29363;DHT22;16349;53.672;10.014;2023-02-13T14:25:42;7.40;99.90
29363;DHT22;16349;53.672;10.014;2023-02-13T14:28:20;7.40;99.90
29363;DHT22;16349;53.672;10.014;2023-02-13T14:30:48;7.40;99.90
29363;DHT22;16349;53.672;10.014;2023-02-13T14:33:24;7.40;99.90
29363;DHT22;16349;53.672;10.014;2023-02-13T14:36:20;7.40;99.90
29363;DHT22;16349;53.672;10.014;2023-02-13T14:38:54;7.40;99.90
29363;DHT22;16349;53.672;10.014;2023-02-13T14:41:41;7.40;99.90
29363;DHT22;16349;53.672;10.014;2023-02-13T14:44:16;7.40;99.90
29363;DHT22;16349;53.672;10.014;2023-02-13T14:46:45;7.40;99.90
29363;DHT22;16349;53.672;10.014;2023-02-13T14:49:16;7.40;99.90
29363;DHT22;16349;53.672;10.014;2023-02-13T14:51:47;7.30;99.90
29363;DHT22;16349;53.672;10.014;2023-02-13T14:54:36;7.30;99.90
29363;DHT22;16349;53.672;10.014;2023-02-13T14:57:28;7.30;99.90
29363;DHT22;16349;53.672;10.014;2023-02-13T14:59:59;7.30;99.90
29363;DHT22;16349;53.672;10.014;2023-02-13T15:02:29;7.30;99.90
29363;DHT22;16349;53.672;10.014;2023-02-13T15:05:00;7.30;99.90
29363;DHT22;16349;53.672;10.014;2023-02-13T15:07:52;7.30;99.90
29363;DHT22;16349;53.672;10.014;2023-02-13T15:10:32;7.30;99.90
29363;DHT22;16349;53.672;10.014;2023-02-13T15:13:03;7.20;99.90
29363;DHT22;16349;53.672;10.014;2023-02-13T15:15:33;7.20;99.90
29363;DHT22;16349;53.672;10.014;2023-02-13T15:18:06;7.10;99.90
29363;DHT22;16349;53.672;10.014;2023-02-13T15:20:35;7.10;99.90
29363;DHT22;16349;53.672;10.014;2023-02-13T15:23:04;7.10;99.90
29363;DHT22;16349;53.672;10.014;2023-02-13T15:25:33;7.10;99.90
29363;DHT22;16349;53.672;10.014;2023-02-13T15:28:05;7.00;99.90
29363;DHT22;16349;53.672;10.014;2023-02-13T15:30:33;7.00;99.90
29363;DHT22;16349;53.672;10.014;2023-02-13T15:33:03;7.00;99.90
29363;DHT22;16349;53.672;10.014;2023-02-13T15:35:41;7.00;99.90
29363;DHT22;16349;53.672;10.014;2023-02-13T15:38:18;7.00;99.90
29363;DHT22;16349;53.672;10.014;2023-02-13T15:40:46;7.00;99.90
29363;DHT22;16349;53.672;10.014;2023-02-13T15:43:21;7.00;99.90
29363;DHT22;16349;53.672;10.014;2023-02-13T15:45:49;7.00;99.90
29363;DHT22;16349;53.672;10.014;2023-02-13T15:48:16;7.00;99.90
29363;DHT22;16349;53.672;10.014;2023-02-13T15:50:43;7.00;99.90
29363;DHT22;16349;53.672;10.014;2023-02-13T15:53:14;7.00;99.90
29363;DHT22;16349;53.672;10.014;2023-02-13T15:55:55;6.90;99.90
29363;DHT22;16349;53.672;10.014;2023-02-13T15:58:42;6.90;99.90
29363;DHT22;16349;53.672;10.014;2023-02-13T16:01:31;6.90;99.90
29363;DHT22;16349;53.672;10.014;2023-02-13T16:04:02;6.90;99.90
29363;DHT22;16349;53.672;10.014;2023-02-13T16:06:30;6.80;99.90
29363;DHT22;16349;53.672;10.014;2023-02-13T16:08:59;6.80;99.90
29363;DHT22;16349;53.672;10.014;2023-02-13T16:11:31;6.80;99.90